sensor_id;sensor_type;location;lat;lon;timestamp;pressure;altitude;pressure_sealevel;temperature;humidity
56402;BME280;42299;35.160;26.100;2022-09-21T00:01:03;100825.13;;;20.59;73.17
56402;BME280;42299;35.160;26.100;2022-09-21T00:02:25;100826.00;;;20.60;73.46
56402;BME280;42299;35.160;26.100;2022-09-21T00:03:53;100825.00;;;20.64;73.53
56402;BME280;42299;35.160;26.100;2022-09-21T00:05:16;100823.19;;;20.64;73.85
56402;BME280;42299;35.160;26.100;2022-09-21T00:06:38;100820.47;;;20.66;73.95
56402;BME280;42299;35.160;26.100;2022-09-21T00:08:02;100818.59;;;20.69;73.98
56402;BME280;42299;35.160;26.100;2022-09-21T00:09:24;100817.66;;;20.71;73.93
56402;BME280;42299;35.160;26.100;2022-09-21T00:10:48;100814.97;;;20.72;73.90
56402;BME280;42299;35.160;26.100;2022-09-21T00:12:10;100815.81;;;20.74;74.21
56402;BME280;42299;35.160;26.100;2022-09-21T00:13:33;100809.47;;;20.77;73.99
56402;BME280;42299;35.160;26.100;2022-09-21T00:14:57;100813.03;;;20.77;74.24
56402;BME280;42299;35.160;26.100;2022-09-21T00:16:20;100810.31;;;20.79;74.11
56402;BME280;42299;35.160;26.100;2022-09-21T00:17:45;100804.09;;;20.77;73.87
56402;BME280;42299;35.160;26.100;2022-09-21T00:19:09;100808.59;;;20.75;73.49
56402;BME280;42299;35.160;26.100;2022-09-21T00:20:32;100806.94;;;20.71;73.57
56402;BME280;42299;35.160;26.100;2022-09-21T00:21:55;100815.94;;;20.68;73.54
56402;BME280;42299;35.160;26.100;2022-09-21T00:23:17;100816.94;;;20.64;73.37
56402;BME280;42299;35.160;26.100;2022-09-21T00:24:40;100809.91;;;20.60;73.21
56402;BME280;42299;35.160;26.100;2022-09-21T00:26:06;100803.72;;;20.56;73.10
56402;BME280;42299;35.160;26.100;2022-09-21T00:27:28;100812.78;;;20.52;73.02
56402;BME280;42299;35.160;26.100;2022-09-21T00:28:52;100811.94;;;20.49;73.07
56402;BME280;42299;35.160;26.100;2022-09-21T00:30:15;100807.56;;;20.46;73.22
56402;BME280;42299;35.160;26.100;2022-09-21T00:31:36;100811.16;;;20.45;73.29
56402;BME280;42299;35.160;26.100;2022-09-21T00:32:59;100812.94;;;20.45;73.51
56402;BME280;42299;35.160;26.100;2022-09-21T00:34:22;100811.16;;;20.45;73.78
56402;BME280;42299;35.160;26.100;2022-09-21T00:35:44;100813.84;;;20.45;73.90
56402;BME280;42299;35.160;26.100;2022-09-21T00:37:06;100816.56;;;20.42;74.05
56402;BME280;42299;35.160;26.100;2022-09-21T00:38:29;100812.16;;;20.41;74.10
56402;BME280;42299;35.160;26.100;2022-09-21T00:39:50;100813.97;;;20.39;73.84
56402;BME280;42299;35.160;26.100;2022-09-21T00:41:13;100814.91;;;20.38;73.97
56402;BME280;42299;35.160;26.100;2022-09-21T00:42:34;100810.47;;;20.36;73.91
56402;BME280;42299;35.160;26.100;2022-09-21T00:44:19;100820.28;;;20.37;73.95
56402;BME280;42299;35.160;26.100;2022-09-21T00:45:46;100815.91;;;20.34;74.09
56402;BME280;42299;35.160;26.100;2022-09-21T00:47:13;100819.47;;;20.35;74.37
56402;BME280;42299;35.160;26.100;2022-09-21T00:48:35;100811.41;;;20.35;74.38
56402;BME280;42299;35.160;26.100;2022-09-21T00:50:03;100817.59;;;20.37;74.61
56402;BME280;42299;35.160;26.100;2022-09-21T00:51:25;100817.56;;;20.38;74.70
56402;BME280;42299;35.160;26.100;2022-09-21T00:52:49;100815.75;;;20.40;74.73
56402;BME280;42299;35.160;26.100;2022-09-21T00:54:15;100813.06;;;20.40;74.70
56402;BME280;42299;35.160;26.100;2022-09-21T00:55:41;100816.63;;;20.41;74.77
56402;BME280;42299;35.160;26.100;2022-09-21T00:57:04;100818.44;;;20.40;74.81
56402;BME280;42299;35.160;26.100;2022-09-21T00:58:29;100814.84;;;20.41;74.79
56402;BME280;42299;35.160;26.100;2022-09-21T00:59:55;100813.88;;;20.42;74.99
56402;BME280;42299;35.160;26.100;2022-09-21T01:01:18;100816.56;;;20.42;75.19
56402;BME280;42299;35.160;26.100;2022-09-21T01:02:42;100810.38;;;20.40;75.10
56402;BME280;42299;35.160;26.100;2022-09-21T01:04:04;100813.06;;;20.40;75.10
56402;BME280;42299;35.160;26.100;2022-09-21T01:05:30;100800.47;;;20.42;75.15
56402;BME280;42299;35.160;26.100;2022-09-21T01:06:51;100806.78;;;20.41;75.17
56402;BME280;42299;35.160;26.100;2022-09-21T01:08:14;100804.94;;;20.43;75.29
56402;BME280;42299;35.160;26.100;2022-09-21T01:09:37;100809.34;;;20.46;75.39
56402;BME280;42299;35.160;26.100;2022-09-21T01:11:15;100802.97;;;20.50;75.33
56402;BME280;42299;35.160;26.100;2022-09-21T01:12:54;100810.13;;;20.51;75.59
56402;BME280;42299;35.160;26.100;2022-09-21T01:14:57;100807.41;;;20.52;75.56
56402;BME280;42299;35.160;26.100;2022-09-21T01:16:25;100811.00;;;20.51;75.78
56402;BME280;42299;35.160;26.100;2022-09-21T01:17:59;100805.63;;;20.51;75.58
56402;BME280;42299;35.160;26.100;2022-09-21T01:19:48;100811.91;;;20.50;75.55
56402;BME280;42299;35.160;26.100;2022-09-21T01:21:18;100809.31;;;20.47;75.37
56402;BME280;42299;35.160;26.100;2022-09-21T01:22:51;100803.09;;;20.45;75.28
56402;BME280;42299;35.160;26.100;2022-09-21T01:24:33;100807.66;;;20.42;75.19
56402;BME280;42299;35.160;26.100;2022-09-21T01:26:07;100805.91;;;20.41;75.26
56402;BME280;42299;35.160;26.100;2022-09-21T01:27:38;100807.75;;;20.37;75.30
56402;BME280;42299;35.160;26.100;2022-09-21T01:29:21;100813.09;;;20.39;75.27
56402;BME280;42299;35.160;26.100;2022-09-21T01:30:48;100807.69;;;20.40;75.45
56402;BME280;42299;35.160;26.100;2022-09-21T01:32:15;100801.38;;;20.43;75.31
56402;BME280;42299;35.160;26.100;2022-09-21T01:33:44;100806.66;;;20.46;75.39
56402;BME280;42299;35.160;26.100;2022-09-21T01:35:11;100815.47;;;20.51;75.53
56402;BME280;42299;35.160;26.100;2022-09-21T01:36:36;100812.69;;;20.55;75.52
56402;BME280;42299;35.160;26.100;2022-09-21T01:38:01;100813.50;;;20.59;75.64
56402;BME280;42299;35.160;26.100;2022-09-21T01:39:26;100804.47;;;20.61;75.74
56402;BME280;42299;35.160;26.100;2022-09-21T01:40:51;100808.91;;;20.64;75.78
56402;BME280;42299;35.160;26.100;2022-09-21T01:42:18;100808.00;;;20.63;75.55
56402;BME280;42299;35.160;26.100;2022-09-21T01:43:42;100802.66;;;20.63;75.44
56402;BME280;42299;35.160;26.100;2022-09-21T01:45:10;100800.88;;;20.62;75.28
56402;BME280;42299;35.160;26.100;2022-09-21T01:46:32;100794.75;;;20.57;75.17
56402;BME280;42299;35.160;26.100;2022-09-21T01:47:58;100798.38;;;20.55;75.09
56402;BME280;42299;35.160;26.100;2022-09-21T01:49:24;100800.25;;;20.53;75.03
56402;BME280;42299;35.160;26.100;2022-09-21T01:50:51;100793.16;;;20.49;74.93
56402;BME280;42299;35.160;26.100;2022-09-21T01:52:17;100790.56;;;20.46;75.07
56402;BME280;42299;35.160;26.100;2022-09-21T01:53:43;100781.72;;;20.42;75.15
56402;BME280;42299;35.160;26.100;2022-09-21T01:55:11;100775.56;;;20.39;75.04
56402;BME280;42299;35.160;26.100;2022-09-21T01:56:35;100773.81;;;20.36;75.10
56402;BME280;42299;35.160;26.100;2022-09-21T01:58:03;100775.72;;;20.33;74.96
56402;BME280;42299;35.160;26.100;2022-09-21T01:59:34;100770.38;;;20.29;75.09
56402;BME280;42299;35.160;26.100;2022-09-21T02:01:05;100774.03;;;20.27;75.13
56402;BME280;42299;35.160;26.100;2022-09-21T02:02:35;100774.03;;;20.27;75.42
56402;BME280;42299;35.160;26.100;2022-09-21T02:04:02;100767.81;;;20.25;75.46
56402;BME280;42299;35.160;26.100;2022-09-21T02:05:27;100774.09;;;20.22;75.51
56402;BME280;42299;35.160;26.100;2022-09-21T02:06:51;100770.53;;;20.22;75.75
56402;BME280;42299;35.160;26.100;2022-09-21T02:08:13;100771.53;;;20.19;75.57
56402;BME280;42299;35.160;26.100;2022-09-21T02:09:36;100774.22;;;20.18;75.79
56402;BME280;42299;35.160;26.100;2022-09-21T02:10:59;100776.91;;;20.18;75.93
56402;BME280;42299;35.160;26.100;2022-09-21T02:12:22;100771.56;;;20.16;75.77
56402;BME280;42299;35.160;26.100;2022-09-21T02:13:47;100772.47;;;20.17;75.94
56402;BME280;42299;35.160;26.100;2022-09-21T02:15:11;100772.47;;;20.17;75.95
56402;BME280;42299;35.160;26.100;2022-09-21T02:16:36;100768.91;;;20.16;75.92
56402;BME280;42299;35.160;26.100;2022-09-21T02:18:04;100759.16;;;20.14;75.79
56402;BME280;42299;35.160;26.100;2022-09-21T02:19:32;100761.84;;;20.12;75.70
56402;BME280;42299;35.160;26.100;2022-09-21T02:20:59;100766.38;;;20.10;75.82
56402;BME280;42299;35.160;26.100;2022-09-21T02:22:30;100765.53;;;20.08;75.72
56402;BME280;42299;35.160;26.100;2022-09-21T02:24:01;100763.81;;;20.06;75.96
56402;BME280;42299;35.160;26.100;2022-09-21T02:25:35;100758.50;;;20.03;75.95
56402;BME280;42299;35.160;26.100;2022-09-21T02:27:04;100755.00;;;20.01;75.79
56402;BME280;42299;35.160;26.100;2022-09-21T02:28:32;100750.56;;;19.98;75.86
56402;BME280;42299;35.160;26.100;2022-09-21T02:30:04;100752.47;;;19.95;75.92
56402;BME280;42299;35.160;26.100;2022-09-21T02:31:31;100759.63;;;19.93;76.02
56402;BME280;42299;35.160;26.100;2022-09-21T02:33:02;100760.53;;;19.93;76.30
56402;BME280;42299;35.160;26.100;2022-09-21T02:34:31;100766.75;;;19.95;76.30
56402;BME280;42299;35.160;26.100;2022-09-21T02:35:58;100762.19;;;19.99;76.36
56402;BME280;42299;35.160;26.100;2022-09-21T02:37:33;100769.22;;;20.03;76.43
56402;BME280;42299;35.160;26.100;2022-09-21T02:39:02;100770.03;;;20.06;76.30
56402;BME280;42299;35.160;26.100;2022-09-21T02:40:29;100774.53;;;20.06;76.26
56402;BME280;42299;35.160;26.100;2022-09-21T02:42:00;100764.72;;;20.05;76.38
56402;BME280;42299;35.160;26.100;2022-09-21T02:43:26;100767.38;;;20.06;76.18
56402;BME280;42299;35.160;26.100;2022-09-21T02:44:57;100768.25;;;20.07;75.90
56402;BME280;42299;35.160;26.100;2022-09-21T02:46:24;100770.03;;;20.06;75.96
56402;BME280;42299;35.160;26.100;2022-09-21T02:47:51;100763.81;;;20.06;75.78
56402;BME280;42299;35.160;26.100;2022-09-21T02:49:18;100763.81;;;20.06;75.83
56402;BME280;42299;35.160;26.100;2022-09-21T02:50:45;100758.47;;;20.04;75.97
56402;BME280;42299;35.160;26.100;2022-09-21T02:52:11;100757.56;;;20.05;75.98
56402;BME280;42299;35.160;26.100;2022-09-21T02:53:35;100762.03;;;20.05;76.05
56402;BME280;42299;35.160;26.100;2022-09-21T02:55:00;100767.38;;;20.06;76.34
56402;BME280;42299;35.160;26.100;2022-09-21T02:56:24;100755.72;;;20.07;76.50
56402;BME280;42299;35.160;26.100;2022-09-21T02:57:49;100767.25;;;20.11;76.46
56402;BME280;42299;35.160;26.100;2022-09-21T02:59:12;100756.53;;;20.11;76.54
56402;BME280;42299;35.160;26.100;2022-09-21T03:00:36;100756.50;;;20.12;76.93
56402;BME280;42299;35.160;26.100;2022-09-21T03:01:58;100763.69;;;20.10;76.83
56402;BME280;42299;35.160;26.100;2022-09-21T03:03:22;100762.78;;;20.11;76.77
56402;BME280;42299;35.160;26.100;2022-09-21T03:04:46;100766.31;;;20.13;76.89
56402;BME280;42299;35.160;26.100;2022-09-21T03:06:09;100768.13;;;20.11;76.58
56402;BME280;42299;35.160;26.100;2022-09-21T03:07:31;100775.25;;;20.12;76.58
56402;BME280;42299;35.160;26.100;2022-09-21T03:08:53;100775.28;;;20.11;76.66
56402;BME280;42299;35.160;26.100;2022-09-21T03:10:18;100772.69;;;20.08;76.63
56402;BME280;42299;35.160;26.100;2022-09-21T03:11:40;100778.09;;;20.06;76.71
56402;BME280;42299;35.160;26.100;2022-09-21T03:13:03;100771.88;;;20.04;76.64
56402;BME280;42299;35.160;26.100;2022-09-21T03:14:25;100779.94;;;20.03;76.70
56402;BME280;42299;35.160;26.100;2022-09-21T03:15:47;100774.56;;;20.03;76.55
56402;BME280;42299;35.160;26.100;2022-09-21T03:17:08;100770.97;;;20.04;76.55
56402;BME280;42299;35.160;26.100;2022-09-21T03:18:32;100771.88;;;20.04;76.84
56402;BME280;42299;35.160;26.100;2022-09-21T03:19:56;100772.75;;;20.05;76.85
56402;BME280;42299;35.160;26.100;2022-09-21T03:21:18;100772.75;;;20.05;77.08
56402;BME280;42299;35.160;26.100;2022-09-21T03:22:40;100776.28;;;20.07;77.25
56402;BME280;42299;35.160;26.100;2022-09-21T03:24:02;100774.44;;;20.09;77.49
56402;BME280;42299;35.160;26.100;2022-09-21T03:25:24;100775.28;;;20.11;77.73
56402;BME280;42299;35.160;26.100;2022-09-21T03:26:46;100769.91;;;20.12;77.75
56402;BME280;42299;35.160;26.100;2022-09-21T03:28:09;100773.38;;;20.16;77.91
56402;BME280;42299;35.160;26.100;2022-09-21T03:29:33;100770.63;;;20.19;78.10
56402;BME280;42299;35.160;26.100;2022-09-21T03:30:54;100772.31;;;20.23;78.20
56402;BME280;42299;35.160;26.100;2022-09-21T03:32:17;100778.53;;;20.25;78.10
56402;BME280;42299;35.160;26.100;2022-09-21T03:33:38;100784.78;;;20.25;78.06
56402;BME280;42299;35.160;26.100;2022-09-21T03:35:03;100778.50;;;20.26;78.09
56402;BME280;42299;35.160;26.100;2022-09-21T03:36:24;100783.88;;;20.26;77.94
56402;BME280;42299;35.160;26.100;2022-09-21T03:37:48;100782.94;;;20.27;78.15
56402;BME280;42299;35.160;26.100;2022-09-21T03:39:10;100783.84;;;20.28;78.12
56402;BME280;42299;35.160;26.100;2022-09-21T03:40:32;100786.53;;;20.28;78.16
56402;BME280;42299;35.160;26.100;2022-09-21T03:41:54;100791.03;;;20.26;77.89
56402;BME280;42299;35.160;26.100;2022-09-21T03:43:17;100789.25;;;20.25;77.94
56402;BME280;42299;35.160;26.100;2022-09-21T03:44:40;100790.25;;;20.21;77.92
56402;BME280;42299;35.160;26.100;2022-09-21T03:46:03;100789.44;;;20.17;77.57
56402;BME280;42299;35.160;26.100;2022-09-21T03:47:24;100789.53;;;20.14;77.44
56402;BME280;42299;35.160;26.100;2022-09-21T03:48:48;100790.47;;;20.12;77.63
56402;BME280;42299;35.160;26.100;2022-09-21T03:50:13;100794.06;;;20.11;77.89
56402;BME280;42299;35.160;26.100;2022-09-21T03:51:35;100789.69;;;20.07;77.85
56402;BME280;42299;35.160;26.100;2022-09-21T03:52:59;100788.84;;;20.05;77.86
56402;BME280;42299;35.160;26.100;2022-09-21T03:54:21;100803.16;;;20.04;78.10
56402;BME280;42299;35.160;26.100;2022-09-21T03:55:44;100796.00;;;20.03;78.30
56402;BME280;42299;35.160;26.100;2022-09-21T03:57:06;100800.56;;;20.01;78.24
56402;BME280;42299;35.160;26.100;2022-09-21T03:58:29;100798.75;;;20.01;78.39
56402;BME280;42299;35.160;26.100;2022-09-21T03:59:51;100803.16;;;20.02;78.58
56402;BME280;42299;35.160;26.100;2022-09-21T04:01:14;100801.38;;;20.03;78.56
56402;BME280;42299;35.160;26.100;2022-09-21T04:02:37;100798.66;;;20.04;78.64
56402;BME280;42299;35.160;26.100;2022-09-21T04:04:00;100796.84;;;20.06;78.97
56402;BME280;42299;35.160;26.100;2022-09-21T04:05:24;100806.59;;;20.09;78.93
56402;BME280;42299;35.160;26.100;2022-09-21T04:06:47;100804.88;;;20.08;79.07
56402;BME280;42299;35.160;26.100;2022-09-21T04:08:08;100804.88;;;20.08;78.83
56402;BME280;42299;35.160;26.100;2022-09-21T04:09:31;100815.53;;;20.09;78.90
56402;BME280;42299;35.160;26.100;2022-09-21T04:10:53;100806.69;;;20.06;78.70
56402;BME280;42299;35.160;26.100;2022-09-21T04:12:16;100809.38;;;20.06;78.59
56402;BME280;42299;35.160;26.100;2022-09-21T04:13:39;100806.69;;;20.06;78.39
56402;BME280;42299;35.160;26.100;2022-09-21T04:15:02;100800.41;;;20.07;78.48
56402;BME280;42299;35.160;26.100;2022-09-21T04:16:27;100794.16;;;20.06;78.29
56402;BME280;42299;35.160;26.100;2022-09-21T04:17:50;100797.72;;;20.07;78.46
56402;BME280;42299;35.160;26.100;2022-09-21T04:19:13;100798.66;;;20.06;78.29
56402;BME280;42299;35.160;26.100;2022-09-21T04:20:37;100797.72;;;20.07;78.40
56402;BME280;42299;35.160;26.100;2022-09-21T04:22:01;100800.41;;;20.07;78.43
56402;BME280;42299;35.160;26.100;2022-09-21T04:23:23;100796.81;;;20.08;78.50
56402;BME280;42299;35.160;26.100;2022-09-21T04:24:46;100806.59;;;20.09;78.70
56402;BME280;42299;35.160;26.100;2022-09-21T04:26:17;100800.28;;;20.11;78.54
56402;BME280;42299;35.160;26.100;2022-09-21T04:27:41;100802.06;;;20.12;78.65
56402;BME280;42299;35.160;26.100;2022-09-21T04:29:04;100798.44;;;20.15;78.68
56402;BME280;42299;35.160;26.100;2022-09-21T04:30:26;100796.59;;;20.17;78.56
56402;BME280;42299;35.160;26.100;2022-09-21T04:31:49;100799.25;;;20.18;78.74
56402;BME280;42299;35.160;26.100;2022-09-21T04:33:11;100797.34;;;20.22;78.57
56402;BME280;42299;35.160;26.100;2022-09-21T04:34:34;100799.97;;;20.25;78.41
56402;BME280;42299;35.160;26.100;2022-09-21T04:36:01;100791.88;;;20.28;78.42
56402;BME280;42299;35.160;26.100;2022-09-21T04:37:23;100802.50;;;20.31;78.11
56402;BME280;42299;35.160;26.100;2022-09-21T04:38:46;100806.06;;;20.35;78.30
56402;BME280;42299;35.160;26.100;2022-09-21T04:40:09;100789.03;;;20.36;78.17
56402;BME280;42299;35.160;26.100;2022-09-21T04:41:31;100801.47;;;20.40;78.32
56402;BME280;42299;35.160;26.100;2022-09-21T04:42:53;100787.13;;;20.41;78.23
56402;BME280;42299;35.160;26.100;2022-09-21T04:44:16;100791.53;;;20.43;78.33
56402;BME280;42299;35.160;26.100;2022-09-21T04:45:39;100795.06;;;20.45;78.23
56402;BME280;42299;35.160;26.100;2022-09-21T04:47:02;100789.59;;;20.48;77.95
56402;BME280;42299;35.160;26.100;2022-09-21T04:48:25;100794.06;;;20.49;77.99
56402;BME280;42299;35.160;26.100;2022-09-21T04:49:47;100799.41;;;20.49;78.01
56402;BME280;42299;35.160;26.100;2022-09-21T04:51:12;100795.78;;;20.52;77.79
56402;BME280;42299;35.160;26.100;2022-09-21T04:52:35;100794.00;;;20.52;77.71
56402;BME280;42299;35.160;26.100;2022-09-21T04:53:58;100787.72;;;20.53;78.02
56402;BME280;42299;35.160;26.100;2022-09-21T04:55:20;100792.94;;;20.58;78.10
56402;BME280;42299;35.160;26.100;2022-09-21T04:56:43;100784.75;;;20.64;78.04
56402;BME280;42299;35.160;26.100;2022-09-21T04:58:04;100789.09;;;20.68;77.97
56402;BME280;42299;35.160;26.100;2022-09-21T04:59:27;100795.25;;;20.73;77.84
56402;BME280;42299;35.160;26.100;2022-09-21T05:00:50;100793.38;;;20.77;77.72
56402;BME280;42299;35.160;26.100;2022-09-21T05:02:13;100797.63;;;20.85;77.69
56402;BME280;42299;35.160;26.100;2022-09-21T05:03:35;100785.53;;;21.01;77.88
56402;BME280;42299;35.160;26.100;2022-09-21T05:04:58;100794.88;;;21.21;78.22
56402;BME280;42299;35.160;26.100;2022-09-21T05:06:22;100796.19;;;21.38;78.40
56402;BME280;42299;35.160;26.100;2022-09-21T05:07:43;100800.19;;;21.55;78.43
56402;BME280;42299;35.160;26.100;2022-09-21T05:09:05;100797.06;;;21.70;78.34
56402;BME280;42299;35.160;26.100;2022-09-21T05:10:45;100799.13;;;21.91;78.20
56402;BME280;42299;35.160;26.100;2022-09-21T05:12:06;100808.66;;;22.03;77.81
56402;BME280;42299;35.160;26.100;2022-09-21T05:13:29;100817.38;;;22.11;77.33
56402;BME280;42299;35.160;26.100;2022-09-21T05:14:50;100812.81;;;22.13;76.63
56402;BME280;42299;35.160;26.100;2022-09-21T05:16:16;100813.56;;;22.18;76.32
56402;BME280;42299;35.160;26.100;2022-09-21T05:17:39;100810.56;;;22.27;76.21
56402;BME280;42299;35.160;26.100;2022-09-21T05:19:03;100814.88;;;22.33;75.84
56402;BME280;42299;35.160;26.100;2022-09-21T05:20:24;100816.78;;;22.29;75.36
56402;BME280;42299;35.160;26.100;2022-09-21T05:21:48;100813.28;;;22.25;75.37
56402;BME280;42299;35.160;26.100;2022-09-21T05:23:10;100814.34;;;22.21;75.16
56402;BME280;42299;35.160;26.100;2022-09-21T05:24:32;100815.13;;;22.25;75.37
56402;BME280;42299;35.160;26.100;2022-09-21T05:25:55;100814.63;;;22.40;75.69
56402;BME280;42299;35.160;26.100;2022-09-21T05:27:17;100804.97;;;22.61;75.59
56402;BME280;42299;35.160;26.100;2022-09-21T05:28:41;100810.47;;;22.84;75.60
56402;BME280;42299;35.160;26.100;2022-09-21T05:30:02;100802.69;;;23.03;75.28
56402;BME280;42299;35.160;26.100;2022-09-21T05:31:31;100801.00;;;23.24;74.72
56402;BME280;42299;35.160;26.100;2022-09-21T05:33:00;100802.44;;;23.34;73.70
56402;BME280;42299;35.160;26.100;2022-09-21T05:34:41;100798.41;;;23.47;73.42
56402;BME280;42299;35.160;26.100;2022-09-21T05:36:15;100799.47;;;23.66;72.95
56402;BME280;42299;35.160;26.100;2022-09-21T05:37:52;100795.19;;;23.84;72.39
56402;BME280;42299;35.160;26.100;2022-09-21T05:39:19;100793.78;;;23.97;71.99
56402;BME280;42299;35.160;26.100;2022-09-21T05:40:40;100804.03;;;24.11;71.77
56402;BME280;42299;35.160;26.100;2022-09-21T05:42:03;100809.69;;;24.28;71.48
56402;BME280;42299;35.160;26.100;2022-09-21T05:43:27;100800.94;;;24.43;71.23
56402;BME280;42299;35.160;26.100;2022-09-21T05:44:50;100798.50;;;24.59;70.73
56402;BME280;42299;35.160;26.100;2022-09-21T05:46:18;100800.22;;;24.82;70.01
56402;BME280;42299;35.160;26.100;2022-09-21T05:47:48;100788.41;;;25.06;69.20
56402;BME280;42299;35.160;26.100;2022-09-21T05:49:32;100802.09;;;25.42;68.39
56402;BME280;42299;35.160;26.100;2022-09-21T05:51:00;100795.13;;;25.77;67.40
56402;BME280;42299;35.160;26.100;2022-09-21T05:52:29;100790.94;;;26.07;65.49
56402;BME280;42299;35.160;26.100;2022-09-21T05:54:02;100793.22;;;26.16;63.44
56402;BME280;42299;35.160;26.100;2022-09-21T05:55:36;100785.69;;;26.04;62.92
56402;BME280;42299;35.160;26.100;2022-09-21T05:57:09;100792.78;;;25.88;62.57
56402;BME280;42299;35.160;26.100;2022-09-21T05:58:38;100790.66;;;25.76;63.02
56402;BME280;42299;35.160;26.100;2022-09-21T06:00:10;100793.06;;;25.82;63.50
56402;BME280;42299;35.160;26.100;2022-09-21T06:01:43;100793.94;;;26.01;63.43
56402;BME280;42299;35.160;26.100;2022-09-21T06:03:25;100796.06;;;26.13;61.78
56402;BME280;42299;35.160;26.100;2022-09-21T06:04:49;100792.88;;;26.05;61.37
56402;BME280;42299;35.160;26.100;2022-09-21T06:06:13;100794.59;;;26.06;61.76
56402;BME280;42299;35.160;26.100;2022-09-21T06:07:36;100794.25;;;26.33;61.55
56402;BME280;42299;35.160;26.100;2022-09-21T06:08:59;100792.75;;;26.63;60.74
56402;BME280;42299;35.160;26.100;2022-09-21T06:10:21;100785.97;;;26.90;59.77
56402;BME280;42299;35.160;26.100;2022-09-21T06:11:44;100787.31;;;27.16;59.12
56402;BME280;42299;35.160;26.100;2022-09-21T06:13:07;100788.84;;;27.37;58.59
56402;BME280;42299;35.160;26.100;2022-09-21T06:14:30;100781.97;;;27.65;58.35
56402;BME280;42299;35.160;26.100;2022-09-21T06:15:51;100786.16;;;27.88;57.91
56402;BME280;42299;35.160;26.100;2022-09-21T06:17:14;100786.41;;;27.99;57.75
56402;BME280;42299;35.160;26.100;2022-09-21T06:18:38;100790.13;;;28.13;57.44
56402;BME280;42299;35.160;26.100;2022-09-21T06:20:02;100795.13;;;28.37;56.94
56402;BME280;42299;35.160;26.100;2022-09-21T06:21:24;100792.03;;;28.59;56.12
56402;BME280;42299;35.160;26.100;2022-09-21T06:22:46;100791.22;;;28.72;55.65
56402;BME280;42299;35.160;26.100;2022-09-21T06:24:10;100791.03;;;28.91;54.42
56402;BME280;42299;35.160;26.100;2022-09-21T06:25:32;100792.38;;;29.14;53.35
56402;BME280;42299;35.160;26.100;2022-09-21T06:26:55;100796.69;;;29.32;52.40
56402;BME280;42299;35.160;26.100;2022-09-21T06:28:17;100806.47;;;29.50;52.12
56402;BME280;42299;35.160;26.100;2022-09-21T06:29:40;100800.72;;;29.69;51.66
56402;BME280;42299;35.160;26.100;2022-09-21T06:31:02;100808.38;;;29.92;51.07
56402;BME280;42299;35.160;26.100;2022-09-21T06:32:25;100815.59;;;30.20;49.91
56402;BME280;42299;35.160;26.100;2022-09-21T06:33:47;100820.44;;;30.43;49.26
56402;BME280;42299;35.160;26.100;2022-09-21T06:35:10;100817.34;;;30.49;48.95
56402;BME280;42299;35.160;26.100;2022-09-21T06:36:32;100815.53;;;30.63;48.97
56402;BME280;42299;35.160;26.100;2022-09-21T06:37:57;100823.66;;;30.77;48.29
56402;BME280;42299;35.160;26.100;2022-09-21T06:39:21;100827.56;;;30.73;47.77
56402;BME280;42299;35.160;26.100;2022-09-21T06:40:43;100820.44;;;30.58;47.58
56402;BME280;42299;35.160;26.100;2022-09-21T06:42:06;100826.44;;;30.48;48.13
56402;BME280;42299;35.160;26.100;2022-09-21T06:43:29;100820.22;;;30.46;47.72
56402;BME280;42299;35.160;26.100;2022-09-21T06:44:52;100825.84;;;30.17;47.60
56402;BME280;42299;35.160;26.100;2022-09-21T06:46:15;100817.25;;;29.80;48.35
56402;BME280;42299;35.160;26.100;2022-09-21T06:47:37;100815.88;;;29.45;48.68
56402;BME280;42299;35.160;26.100;2022-09-21T06:49:00;100812.47;;;29.11;48.92
56402;BME280;42299;35.160;26.100;2022-09-21T06:50:22;100814.19;;;28.82;49.25
56402;BME280;42299;35.160;26.100;2022-09-21T06:51:46;100810.28;;;28.57;49.41
56402;BME280;42299;35.160;26.100;2022-09-21T06:53:09;100813.78;;;28.43;50.12
56402;BME280;42299;35.160;26.100;2022-09-21T06:54:32;100815.34;;;28.63;50.10
56402;BME280;42299;35.160;26.100;2022-09-21T06:55:59;100813.50;;;28.95;49.66
56402;BME280;42299;35.160;26.100;2022-09-21T06:57:21;100811.88;;;29.36;48.84
56402;BME280;42299;35.160;26.100;2022-09-21T06:58:44;100820.56;;;29.71;47.89
56402;BME280;42299;35.160;26.100;2022-09-21T07:00:08;100815.94;;;30.01;47.42
56402;BME280;42299;35.160;26.100;2022-09-21T07:01:31;100818.25;;;30.07;47.08
56402;BME280;42299;35.160;26.100;2022-09-21T07:02:54;100822.47;;;29.99;47.16
56402;BME280;42299;35.160;26.100;2022-09-21T07:04:16;100823.59;;;30.09;46.98
56402;BME280;42299;35.160;26.100;2022-09-21T07:05:38;100825.44;;;30.23;46.39
56402;BME280;42299;35.160;26.100;2022-09-21T07:07:01;100824.84;;;30.32;46.04
56402;BME280;42299;35.160;26.100;2022-09-21T07:08:23;100829.13;;;30.22;46.04
56402;BME280;42299;35.160;26.100;2022-09-21T07:09:47;100821.28;;;30.03;46.25
56402;BME280;42299;35.160;26.100;2022-09-21T07:11:10;100813.97;;;30.03;46.44
56402;BME280;42299;35.160;26.100;2022-09-21T07:12:31;100809.09;;;30.23;46.39
56402;BME280;42299;35.160;26.100;2022-09-21T07:13:55;100798.31;;;30.48;46.13
56402;BME280;42299;35.160;26.100;2022-09-21T07:15:18;100798.88;;;30.67;45.78
56402;BME280;42299;35.160;26.100;2022-09-21T07:16:41;100799.69;;;30.82;45.59
56402;BME280;42299;35.160;26.100;2022-09-21T07:18:10;100800.59;;;30.95;45.10
56402;BME280;42299;35.160;26.100;2022-09-21T07:19:32;100800.16;;;31.01;45.31